Galt, IA (50101)

12:31 AM CST on December 22, 2014 (GMT -0600)
IADOT Williams (I-35) | Change Station
CLOSE
Current Station
Personal Weather Station
Location: Popejoy, IA
Elevation: 1148 ft
Nearby Weather Stations

Elev 1148 ft 42.59 °N, 93.53 °W | Updated 31 minutes ago

Overcast
Overcast
39 °F
Feels Like 32 °F
N
12
Wind Variable Wind from SE
Gusts 17.0 mph

Today
High -- | Low -- °F
--% Chance of Precip.
Yesterday
High -- | Low -- °F
Precip. -- in
7:41 AM 4:44 PM
New Moon, 0% visible
Pressure 29.71 in
Visibility 4.0 miles
Clouds Overcast 500 ft
Windchill 32 °F
Dew Point 38 °F
Humidity 95%
Rainfall -999.00 in
Snow Depth Not available.
UV 0 out of 12
Pollen .10 out of 12
Air Quality Not available.
Flu Activity Not available.
METAR KCAV 220615Z AUTO 16014KT 4SM BR OVC005 04/04 A2971 RMK AO2

More Conditions Fewer Conditions

Pressure 29.71 in
Visibility 4.0 miles
Clouds Overcast 500 ft
Windchill 32 °F
Dew Point 38 °F
Humidity 95%
Rainfall -999.00 in
Snow Depth Not available.
UV 0 out of 12
Pollen .10 out of 12
Air Quality Not available.
Flu Activity Not available.
METAR KCAV 220615Z AUTO 16014KT 4SM BR OVC005 04/04 A2971 RMK AO2

More Conditions Fewer Conditions

10-Day Weather Forecast

Almanac

Astronomy

Dec. 22, 2014 Rise Set
Actual Time
Civil Twilight
Nautical Twilight
Astronomical Twilight
Moon
Length of Visible Light
Length of Day
Tomorrow will be .
, % of the Moon is Illuminated

Today's Extremes

State Highs State Lows

Community

WunderPhotos

Upload Photos

1,779,559 photos uploaded!

WunderBlogs® & News

Nearby

Air Quality

  Air Quality AQ Index Pollutant
Not available.

Snow Depth

Station Depth Elevation

Earthquake Activity

City Distance Mag. Time & Date
Minimum magnitude displayed is 2.5.

Coastal Water Temperatures

Place Temperature

Nearby Weather Stations